Time;durP1;ratioP1;P1;durP2;ratioP2;P2;SDS_P1;SDS_P2;PMS_P1;PMS_P2;Temp;Humidity;BMP_temperature;BMP_pressure;BME280_temperature;BME280_humidity;BME280_pressure;Samples;Min_cycle;Max_cycle;Signal;HPM_P1;HPM_P2
2022/06/26 00:00:53;;;;;;;20.80;14.60;;;;;;;16.25;100.00;101208.06;4992560;28;20510;-69
2022/06/26 00:03:19;;;;;;;21.83;14.88;;;;;;;16.21;100.00;101205.59;4991582;28;20030;-69
2022/06/26 00:05:45;;;;;;;21.23;14.45;;;;;;;16.18;100.00;101210.25;4991781;28;20034;-68
2022/06/26 00:08:10;;;;;;;18.65;13.15;;;;;;;16.18;100.00;101204.91;4992979;28;20085;-69
2022/06/26 00:10:36;;;;;;;22.60;14.02;;;;;;;16.13;100.00;101207.88;4991949;28;20053;-69
2022/06/26 00:13:01;;;;;;;23.60;14.48;;;;;;;16.08;100.00;101206.44;4991446;28;20049;-69
2022/06/26 00:15:26;;;;;;;19.00;14.20;;;;;;;16.06;100.00;101227.88;4992500;28;20022;-70
2022/06/26 00:17:52;;;;;;;20.35;14.98;;;;;;;16.00;100.00;101223.81;5007533;28;20050;-70
2022/06/26 00:20:17;;;;;;;20.08;14.55;;;;;;;15.92;100.00;101239.44;4993041;28;20096;-69
2022/06/26 00:22:43;;;;;;;21.45;14.10;;;;;;;15.87;100.00;101229.03;4991256;28;20121;-69
2022/06/26 00:25:09;;;;;;;21.67;14.32;;;;;;;15.84;100.00;101239.91;4991830;28;20037;-69
2022/06/26 00:27:34;;;;;;;20.05;13.73;;;;;;;15.82;100.00;101240.94;4991923;28;20069;-69
2022/06/26 00:29:59;;;;;;;23.25;14.30;;;;;;;15.76;100.00;101230.63;4992554;28;20069;-69
2022/06/26 00:32:25;;;;;;;22.27;13.70;;;;;;;15.69;100.00;101238.13;4992309;28;20042;-70
2022/06/26 00:34:50;;;;;;;20.30;13.23;;;;;;;15.65;100.00;101233.91;4975132;28;20042;-69
2022/06/26 00:37:16;;;;;;;20.02;13.02;;;;;;;15.63;100.00;101238.50;4991328;28;20030;-70
2022/06/26 00:39:41;;;;;;;21.10;13.60;;;;;;;15.62;100.00;101234.13;4992432;28;20042;-69
2022/06/26 00:42:06;;;;;;;20.25;12.45;;;;;;;15.63;100.00;101241.19;4992935;28;20034;-69
2022/06/26 00:44:32;;;;;;;16.33;12.07;;;;;;;15.60;100.00;101234.22;4990469;28;20030;-69
2022/06/26 00:46:57;;;;;;;23.85;13.55;;;;;;;15.60;100.00;101236.00;4991244;28;20036;-69
2022/06/26 00:49:23;;;;;;;18.50;12.73;;;;;;;15.58;100.00;101230.75;4992335;28;20030;-69
2022/06/26 00:51:53;;;;;;;19.48;11.98;;;;;;;15.56;100.00;101235.31;4992593;28;20501;-68
2022/06/26 00:54:20;;;;;;;20.25;13.73;;;;;;;15.50;100.00;101239.22;4992073;28;20030;-69
2022/06/26 00:56:46;;;;;;;18.77;13.10;;;;;;;15.47;100.00;101234.06;4991117;28;20030;-69
2022/06/26 00:59:11;;;;;;;23.20;14.10;;;;;;;15.46;100.00;101236.81;4991741;28;20069;-69
2022/06/26 01:01:37;;;;;;;21.60;13.93;;;;;;;15.46;100.00;101235.03;4991300;28;20031;-69
2022/06/26 01:04:03;;;;;;;24.00;14.20;;;;;;;15.47;100.00;101234.06;4991795;28;20502;-68
2022/06/26 01:06:31;;;;;;;22.85;15.45;;;;;;;15.44;100.00;101228.91;4991013;28;20023;-68
2022/06/26 01:08:57;;;;;;;25.45;16.13;;;;;;;15.51;100.00;101237.41;4990681;28;20050;-68
2022/06/26 01:11:24;;;;;;;25.75;16.92;;;;;;;15.50;100.00;101243.69;4991799;28;20458;-68
2022/06/26 01:13:53;;;;;;;27.35;16.67;;;;;;;15.53;100.00;101240.84;4991649;28;20038;-69
2022/06/26 01:16:20;;;;;;;31.55;17.42;;;;;;;15.51;100.00;101232.06;5005767;28;20034;-68
2022/06/26 01:18:48;;;;;;;24.20;17.00;;;;;;;15.49;100.00;101242.84;4991849;28;20409;-69
2022/06/26 01:21:15;;;;;;;24.77;17.73;;;;;;;15.48;100.00;101241.13;4991157;28;20031;-69
2022/06/26 01:23:41;;;;;;;25.98;18.13;;;;;;;15.49;100.00;101242.00;5006936;28;20030;-69
2022/06/26 01:26:06;;;;;;;25.92;17.88;;;;;;;15.45;100.00;101243.97;4990725;28;20110;-69
2022/06/26 01:28:32;;;;;;;24.10;16.73;;;;;;;15.43;100.00;101240.53;5007157;28;20469;-69
2022/06/26 01:30:58;;;;;;;23.80;16.67;;;;;;;15.43;100.00;101247.69;4992179;28;20077;-69
2022/06/26 01:33:23;;;;;;;25.90;17.40;;;;;;;15.39;100.00;101247.00;4990445;28;20034;-67
2022/06/26 01:35:48;;;;;;;24.42;17.08;;;;;;;15.39;100.00;101247.00;4991652;28;20509;-69
2022/06/26 01:38:23;;;;;;;24.70;16.08;;;;;;;15.37;100.00;101248.88;4994218;28;20038;-70
2022/06/26 01:40:51;;;;;;;22.85;15.55;;;;;;;15.36;100.00;101245.38;4995973;28;20105;-70
2022/06/26 01:43:19;;;;;;;25.95;16.50;;;;;;;15.36;100.00;101245.38;4994673;28;20034;-70
2022/06/26 01:45:50;;;;;;;24.65;16.75;;;;;;;15.37;100.00;101240.88;4999950;28;20022;-69
2022/06/26 01:48:16;;;;;;;26.13;17.40;;;;;;;15.36;100.00;101252.53;4991541;28;20042;-70
2022/06/26 01:50:43;;;;;;;24.17;16.38;;;;;;;15.33;100.00;101250.03;4995718;28;20117;-70
2022/06/26 01:53:09;;;;;;;25.00;17.25;;;;;;;15.30;100.00;101253.75;4994815;28;20041;-70
2022/06/26 01:55:35;;;;;;;26.27;17.58;;;;;;;15.25;100.00;101255.81;4994812;28;20072;-69
2022/06/26 01:58:03;;;;;;;28.20;16.58;;;;;;;15.18;100.00;101249.09;4995436;28;20113;-70
2022/06/26 02:00:30;;;;;;;24.08;15.60;;;;;;;15.13;100.00;101256.50;4995400;28;20050;-70
2022/06/26 02:02:57;;;;;;;26.85;17.35;;;;;;;15.07;100.00;101244.41;4995742;28;20141;-69
2022/06/26 02:05:23;;;;;;;26.15;16.95;;;;;;;15.03;100.00;101242.88;5009656;28;20562;-70
2022/06/26 02:07:48;;;;;;;28.70;16.70;;;;;;;15.00;100.00;101251.03;4995337;28;20050;-70
2022/06/26 02:13:43;;;;;;;26.90;16.27;;;;;;;14.90;100.00;101254.22;4995755;28;20116;-71
2022/06/26 02:15:44;;;;;;;26.08;16.65;;;;;;;14.85;100.00;101247.44;4993847;28;20495;-69
2022/06/26 02:18:09;;;;;;;27.02;15.82;;;;;;;14.82;100.00;101243.13;4995212;28;20030;-70
2022/06/26 02:20:35;;;;;;;24.35;14.68;;;;;;;14.80;100.00;101242.34;4995189;28;20034;-68
2022/06/26 02:23:00;;;;;;;24.85;14.50;;;;;;;14.75;100.00;101236.41;4994005;28;20429;-69
2022/06/26 02:25:26;;;;;;;25.95;15.73;;;;;;;14.71;100.00;101245.53;4994695;28;20034;-69
2022/06/26 02:27:52;;;;;;;26.80;15.32;;;;;;;14.69;100.00;101244.75;4994626;28;20033;-69
2022/06/26 02:30:17;;;;;;;26.80;14.68;;;;;;;14.66;100.00;101242.28;4994984;28;20434;-69
2022/06/26 02:32:43;;;;;;;23.75;13.98;;;;;;;14.63;100.00;101237.94;4994961;28;20034;-70
2022/06/26 02:35:09;;;;;;;21.58;13.55;;;;;;;14.58;100.00;101235.53;4994939;28;20050;-70
2022/06/26 02:37:35;;;;;;;25.10;13.73;;;;;;;14.53;100.00;101237.56;4993914;28;20038;-69
2022/06/26 02:40:00;;;;;;;20.40;12.52;;;;;;;14.51;100.00;101231.47;4994733;28;20722;-69
2022/06/26 02:42:26;;;;;;;20.42;12.13;;;;;;;14.49;100.00;101235.16;4993525;28;20084;-69
2022/06/26 02:44:52;;;;;;;20.55;12.20;;;;;;;14.46;100.00;101238.00;4994828;28;20026;-70
2022/06/26 02:47:17;;;;;;;23.73;12.73;;;;;;;14.42;100.00;101234.63;4993125;28;20053;-69
2022/06/26 02:49:42;;;;;;;24.13;12.70;;;;;;;14.40;100.00;101244.53;4993628;28;20035;-69
2022/06/26 02:52:08;;;;;;;21.48;12.77;;;;;;;14.34;100.00;101232.41;4994974;28;20090;-69
2022/06/26 02:54:33;;;;;;;19.83;11.88;;;;;;;14.32;100.00;101244.97;4994682;28;20030;-69
2022/06/26 02:56:59;;;;;;;20.13;11.88;;;;;;;14.31;100.00;101243.22;4992571;28;20049;-70
2022/06/26 02:59:25;;;;;;;22.05;12.10;;;;;;;14.32;100.00;101246.75;4994251;28;20541;-69
2022/06/26 03:01:50;;;;;;;20.52;12.18;;;;;;;14.30;100.00;101241.50;4993206;28;20049;-69
2022/06/26 03:04:16;;;;;;;19.05;11.80;;;;;;;14.28;100.00;101248.72;4994362;28;20034;-69
2022/06/26 03:06:41;;;;;;;18.63;11.65;;;;;;;14.28;100.00;101248.72;4993165;28;20023;-69
2022/06/26 03:09:06;;;;;;;20.15;11.95;;;;;;;14.25;100.00;101252.41;4981764;28;20031;-69
2022/06/26 03:11:32;;;;;;;19.35;11.57;;;;;;;14.25;100.00;101257.72;4974986;28;20027;-69
2022/06/26 03:13:57;;;;;;;19.80;11.75;;;;;;;14.22;100.00;101249.91;4973963;28;20043;-70
2022/06/26 03:16:22;;;;;;;20.60;12.15;;;;;;;14.22;100.00;101257.03;4973266;28;20031;-69
2022/06/26 03:18:48;;;;;;;20.85;11.10;;;;;;;14.20;100.00;101262.44;4981356;28;20425;-69
2022/06/26 03:21:13;;;;;;;18.67;10.98;;;;;;;14.19;100.00;101259.88;4993020;28;20445;-70
2022/06/26 03:26:23;;;;;;;18.95;11.73;;;;;;;14.15;100.00;101274.28;4994110;28;20395;-70
2022/06/26 03:28:48;;;;;;;20.15;11.15;;;;;;;14.13;100.00;101270.84;4992045;28;20466;-70
2022/06/26 03:31:13;;;;;;;22.08;12.30;;;;;;;14.09;100.00;101265.69;4993993;28;20038;-69
2022/06/26 03:33:39;;;;;;;19.60;11.68;;;;;;;14.05;100.00;101263.25;4994697;28;20022;-69
2022/06/26 03:36:08;;;;;;;22.73;11.88;;;;;;;13.99;100.00;101268.91;4992276;28;20061;-69
2022/06/26 03:38:34;;;;;;;19.55;11.00;;;;;;;13.95;100.00;101281.50;4992422;28;20033;-69
2022/06/26 03:40:59;;;;;;;20.85;11.38;;;;;;;13.94;100.00;101287.78;4992931;28;20026;-69
2022/06/26 03:43:25;;;;;;;21.75;11.90;;;;;;;13.98;100.00;101288.47;4993564;28;20397;-70
2022/06/26 03:45:50;;;;;;;23.98;11.88;;;;;;;14.02;100.00;101292.72;4991984;28;20039;-70
2022/06/26 03:48:15;;;;;;;27.85;12.32;;;;;;;14.07;100.00;101298.66;4992217;28;20041;-69
2022/06/26 03:50:41;;;;;;;22.48;12.25;;;;;;;14.12;100.00;101290.41;5008140;28;20018;-70
2022/06/26 03:53:06;;;;;;;24.52;12.40;;;;;;;14.17;100.00;101288.38;4992339;28;20756;-69
2022/06/26 03:55:32;;;;;;;22.35;11.35;;;;;;;14.22;100.00;101286.31;4993438;28;20038;-68
2022/06/26 03:57:57;;;;;;;24.52;12.07;;;;;;;14.32;100.00;101282.25;4993098;28;20030;-68
2022/06/26 04:00:22;;;;;;;20.48;11.40;;;;;;;14.42;100.00;101287.94;4992282;28;20129;-69
2022/06/26 04:02:48;;;;;;;25.30;10.88;;;;;;;14.49;100.00;101294.66;4993260;28;20072;-69
2022/06/26 04:05:13;;;;;;;22.30;11.00;;;;;;;14.55;100.00;101282.78;4992238;28;20027;-68
2022/06/26 04:07:39;;;;;;;21.08;11.27;;;;;;;14.64;100.00;101293.00;4992032;28;20118;-68
2022/06/26 04:10:05;;;;;;;24.30;11.60;;;;;;;14.73;100.00;101307.59;4992757;28;20027;-70
2022/06/26 04:12:30;;;;;;;23.25;11.15;;;;;;;14.74;100.00;101298.66;4991569;28;20100;-70
2022/06/26 04:14:55;;;;;;;20.65;10.85;;;;;;;14.77;100.00;101297.66;4993253;28;20030;-69
2022/06/26 04:17:21;;;;;;;22.05;9.75;;;;;;;14.79;100.00;101293.94;4991521;28;20458;-69
2022/06/26 04:19:47;;;;;;;19.20;10.27;;;;;;;14.82;100.00;101295.59;4991718;28;20470;-69
2022/06/26 04:22:12;;;;;;;21.30;10.27;;;;;;;14.82;100.00;101295.59;4992491;28;20034;-70
2022/06/26 04:24:38;;;;;;;20.30;9.93;;;;;;;14.86;100.00;101313.13;4992120;28;20066;-65
2022/06/26 04:27:04;;;;;;;25.00;10.18;;;;;;;14.94;100.00;101316.25;4991728;28;20072;-69
2022/06/26 04:29:29;;;;;;;21.95;9.80;;;;;;;14.97;100.00;101309.88;4991567;28;20027;-69
2022/06/26 04:31:54;;;;;;;23.17;9.80;;;;;;;15.04;100.00;101320.13;4991550;28;20088;-70
2022/06/26 04:34:20;;;;;;;20.35;9.85;;;;;;;15.15;100.00;101321.31;4991414;28;20034;-70
2022/06/26 04:36:45;;;;;;;20.90;8.77;;;;;;;15.18;100.00;101327.34;4992397;28;20022;-68
2022/06/26 04:39:10;;;;;;;19.65;8.80;;;;;;;15.24;100.00;101332.34;4992711;28;20109;-69
2022/06/26 04:41:36;;;;;;;18.80;8.70;;;;;;;15.30;100.00;101341.78;4998559;28;20027;-69
2022/06/26 04:44:11;;;;;;;17.60;8.50;;;;;;;15.28;100.00;101340.16;4973201;28;20049;-69
2022/06/26 04:46:38;;;;;;;18.95;8.73;;;;;;;15.29;100.00;101347.22;4973196;28;20026;-69
2022/06/26 04:49:04;;;;;;;16.92;8.20;;;;;;;15.33;100.00;101352.31;4973060;28;20034;-69
2022/06/26 04:51:30;;;;;;;15.02;8.32;;;;;;;15.33;100.00;101343.41;4991314;28;20395;-70
2022/06/26 04:53:55;;;;;;;17.83;8.48;;;;;;;15.34;100.00;101351.34;4971715;28;20069;-69
2022/06/26 04:56:21;;;;;;;16.15;8.48;;;;;;;15.36;100.00;101361.94;4988061;28;20110;-69
2022/06/26 04:58:46;;;;;;;15.90;8.20;;;;;;;15.39;100.00;101370.59;4980883;28;20034;-70
2022/06/26 05:01:12;;;;;;;15.60;8.52;;;;;;;15.44;100.00;101372.19;5007088;28;20061;-69
2022/06/26 05:03:37;;;;;;;15.85;7.93;;;;;;;15.49;100.00;101372.78;4991071;28;20073;-67
2022/06/26 05:06:03;;;;;;;21.00;8.25;;;;;;;15.48;100.00;101371.91;4992391;28;20497;-69
2022/06/26 05:08:28;;;;;;;18.52;7.80;;;;;;;15.53;100.00;101371.66;4992276;28;20034;-69
2022/06/26 05:10:53;;;;;;;15.68;7.38;;;;;;;15.60;100.00;101372.16;4974672;28;20541;-69
2022/06/26 05:13:19;;;;;;;13.80;7.43;;;;;;;15.70;100.00;101368.00;4989485;28;20027;-69
2022/06/26 05:15:46;;;;;;;15.32;7.47;;;;;;;15.77;100.00;101361.34;4990776;28;20042;-68
2022/06/26 05:18:12;;;;;;;11.98;6.80;;;;;;;15.95;100.00;101371.94;4992122;28;20073;-69
2022/06/26 05:20:38;;;;;;;12.32;6.55;;;;;;;16.11;100.00;101364.72;4992449;28;20089;-68
2022/06/26 05:23:03;;;;;;;11.90;6.30;;;;;;;16.27;100.00;101370.00;4991608;28;20030;-68
2022/06/26 05:25:29;;;;;;;11.55;6.13;;;;;;;16.32;100.00;101359.91;4991735;28;20042;-70
2022/06/26 05:27:54;;;;;;;13.85;6.07;;;;;;;16.32;100.00;101359.91;4974530;28;20064;-68
2022/06/26 05:30:20;;;;;;;12.30;5.80;;;;;;;16.16;100.00;101359.09;5007064;28;20041;-68
2022/06/26 05:32:45;;;;;;;10.02;5.78;;;;;;;16.18;100.00;101366.09;4990831;28;20030;-68
2022/06/26 05:35:11;;;;;;;10.27;5.45;;;;;;;16.24;100.00;101366.66;5006387;28;20080;-68
2022/06/26 05:37:36;;;;;;;8.23;4.82;;;;;;;16.28;100.00;101370.84;4990455;28;20034;-70
2022/06/26 05:40:02;;;;;;;8.52;4.38;;;;;;;16.29;100.00;101375.25;5006946;28;20081;-68
2022/06/26 05:42:27;;;;;;;6.18;4.10;;;;;;;16.31;100.00;101384.06;5006196;28;20038;-69
2022/06/26 05:44:53;;;;;;;6.72;4.18;;;;;;;16.36;100.00;101382.81;4986358;28;20108;-69
2022/06/26 05:47:18;;;;;;;6.05;3.92;;;;;;;16.49;100.00;101376.72;4978667;28;20046;-70
2022/06/26 05:49:43;;;;;;;10.25;4.40;;;;;;;16.52;100.00;101379.19;4972447;28;20037;-70
2022/06/26 05:52:09;;;;;;;8.88;4.07;;;;;;;16.61;100.00;101391.16;4990634;28;20096;-69
2022/06/26 05:54:34;;;;;;;9.02;4.47;;;;;;;16.62;100.00;101385.69;4990391;28;20033;-69
2022/06/26 05:57:00;;;;;;;10.10;3.92;;;;;;;16.66;100.00;101389.06;4991642;28;20382;-69
2022/06/26 05:59:25;;;;;;;8.32;3.88;;;;;;;16.65;100.00;101408.72;5001758;28;20558;-68
2022/06/26 06:01:50;;;;;;;6.93;4.10;;;;;;;16.64;100.00;101399.84;5003492;28;20475;-69
2022/06/26 06:04:16;;;;;;;6.28;3.70;;;;;;;16.64;100.00;101404.34;4996000;28;20022;-70
2022/06/26 06:06:41;;;;;;;7.88;3.95;;;;;;;16.61;100.00;101407.19;5007089;28;20474;-70
2022/06/26 06:09:07;;;;;;;6.75;3.85;;;;;;;16.57;100.00;101406.50;4990342;28;20042;-69
2022/06/26 06:11:32;;;;;;;7.60;4.45;;;;;;;16.61;100.00;101415.22;4990455;28;20194;-69
2022/06/26 06:13:58;;;;;;;6.45;4.10;;;;;;;16.61;100.00;101423.22;4991501;28;20500;-69
2022/06/26 06:16:23;;;;;;;6.80;3.90;;;;;;;16.63;100.00;101411.50;4992017;28;20029;-69
2022/06/26 06:18:48;;;;;;;8.02;4.30;;;;;;;16.66;100.00;101410.44;5006489;28;20026;-68
2022/06/26 06:21:14;;;;;;;9.35;3.90;;;;;;;16.87;100.00;101414.47;4991796;28;20027;-67
2022/06/26 06:23:42;;;;;;;8.85;4.05;;;;;;;16.96;100.00;101412.22;5006243;28;20031;-68
2022/06/26 06:26:08;;;;;;;8.48;3.88;;;;;;;17.25;100.00;101420.19;4992611;28;20148;-68
2022/06/26 06:28:33;;;;;;;7.00;3.53;;;;;;;17.49;100.00;101428.47;4983296;28;20039;-68
2022/06/26 06:30:59;;;;;;;9.63;4.35;;;;;;;17.44;100.00;101433.25;4975488;28;20074;-69
2022/06/26 06:33:24;;;;;;;5.65;3.30;;;;;;;17.43;100.00;101432.41;5007554;28;20037;-69
2022/06/26 06:35:51;;;;;;;4.13;3.25;;;;;;;17.16;100.00;101459.09;5008397;28;20110;-69
2022/06/26 06:38:17;;;;;;;5.93;3.55;;;;;;;17.12;100.00;101461.16;4991991;28;20026;-69
2022/06/26 06:40:42;;;;;;;7.80;4.03;;;;;;;17.10;100.00;101473.75;5008458;28;20080;-69
2022/06/26 06:43:11;;;;;;;8.57;4.07;;;;;;;17.17;100.00;101488.47;5015638;28;20022;-69
2022/06/26 06:45:37;;;;;;;6.63;4.10;;;;;;;17.19;100.00;101491.03;4993030;28;20518;-69
2022/06/26 06:48:02;;;;;;;6.75;4.03;;;;;;;17.26;100.00;101486.16;4990801;28;20297;-69
2022/06/26 06:50:27;;;;;;;9.07;4.07;;;;;;;17.56;100.00;101487.84;4981977;28;20034;-70
2022/06/26 06:52:53;;;;;;;6.57;4.15;;;;;;;17.78;100.00;101488.19;4976487;28;20030;-69
2022/06/26 06:55:18;;;;;;;6.78;4.03;;;;;;;18.04;100.00;101508.91;4994202;28;20023;-69
2022/06/26 06:57:44;;;;;;;8.20;4.03;;;;;;;18.13;100.00;101484.16;4993404;28;20102;-68
2022/06/26 07:00:09;;;;;;;6.75;4.15;;;;;;;18.09;100.00;101486.19;4972598;28;20108;-68
2022/06/26 07:02:38;;;;;;;8.30;4.75;;;;;;;18.18;100.00;101490.97;4990900;28;20390;-68
2022/06/26 07:05:06;;;;;;;6.53;4.20;;;;;;;18.29;100.00;101506.31;4983711;28;20175;-68
2022/06/26 07:07:31;;;;;;;7.85;4.15;;;;;;;18.27;100.00;101513.59;4992732;28;20030;-68
2022/06/26 07:09:57;;;;;;;9.52;4.03;;;;;;;18.27;100.00;101505.53;4989456;28;20510;-69
2022/06/26 07:12:22;;;;;;;8.55;4.40;;;;;;;18.31;100.00;101517.81;4998590;28;20049;-69
2022/06/26 07:14:48;;;;;;;6.43;3.80;;;;;;;18.40;100.00;101499.38;5010968;28;20074;-70
2022/06/26 07:17:14;;;;;;;6.97;3.83;;;;;;;18.02;100.00;101509.88;4990410;28;20371;-69
2022/06/26 07:19:39;;;;;;;7.35;3.70;;;;;;;18.01;100.00;101504.59;4993390;28;20041;-69
2022/06/26 07:22:05;;;;;;;7.38;3.80;;;;;;;18.08;100.00;101494.34;4993682;28;20438;-69
2022/06/26 07:24:31;;;;;;;10.00;4.57;;;;;;;18.17;100.00;101513.38;4994683;28;20044;-69
2022/06/26 07:26:56;;;;;;;7.60;3.78;;;;;;;18.30;100.00;101512.53;4987131;28;20058;-69
2022/06/26 07:29:21;;;;;;;5.82;3.53;;;;;;;18.47;100.00;101516.78;4989215;28;20073;-69
2022/06/26 07:31:47;;;;;;;5.68;3.40;;;;;;;18.60;100.00;101516.78;4988266;28;20035;-67
2022/06/26 07:34:12;;;;;;;8.00;3.83;;;;;;;18.70;100.00;101515.19;4992744;28;20054;-66
2022/06/26 07:36:38;;;;;;;8.55;4.10;;;;;;;18.69;99.12;101512.63;4992407;28;20117;-65
2022/06/26 07:39:03;;;;;;;9.45;3.60;;;;;;;18.78;99.50;101517.34;4992560;28;20462;-68
2022/06/26 07:41:29;;;;;;;8.40;3.35;;;;;;;18.83;99.37;101523.25;4992900;28;20152;-69
2022/06/26 07:43:55;;;;;;;6.53;3.60;;;;;;;18.77;98.05;101523.69;4993041;28;20073;-69
2022/06/26 07:46:20;;;;;;;7.90;3.70;;;;;;;18.71;98.69;101524.97;4987625;28;20018;-69
2022/06/26 07:48:45;;;;;;;4.70;3.60;;;;;;;18.73;98.41;101523.03;4993277;28;20113;-69
2022/06/26 07:51:11;;;;;;;6.93;3.40;;;;;;;18.56;97.64;101520.66;4992177;28;20050;-69
2022/06/26 07:53:39;;;;;;;7.35;3.58;;;;;;;18.39;99.94;101528.00;4988443;28;20034;-70
2022/06/26 07:56:05;;;;;;;7.90;3.20;;;;;;;18.43;99.13;101528.69;4989636;28;20501;-68
2022/06/26 07:58:31;;;;;;;6.78;3.42;;;;;;;18.53;98.66;101526.22;4993373;28;20040;-69
2022/06/26 08:00:57;;;;;;;6.40;3.40;;;;;;;18.68;96.80;101535.91;4977886;28;20047;-68
2022/06/26 08:03:22;;;;;;;7.65;3.38;;;;;;;18.65;97.81;101528.91;4987324;28;20092;-69
2022/06/26 08:05:47;;;;;;;5.55;3.10;;;;;;;18.63;93.59;101530.00;5005584;28;20027;-69
2022/06/26 08:08:13;;;;;;;6.18;3.08;;;;;;;18.63;94.79;101528.19;4991399;28;20537;-68
2022/06/26 08:10:39;;;;;;;5.47;3.30;;;;;;;18.75;96.41;101533.69;5005680;28;20589;-68
2022/06/26 08:13:05;;;;;;;5.90;3.17;;;;;;;18.73;93.97;101539.13;4983959;28;20018;-69
2022/06/26 08:15:31;;;;;;;6.20;3.38;;;;;;;18.75;94.79;101531.84;4990861;28;20399;-68
2022/06/26 08:17:57;;;;;;;5.57;3.20;;;;;;;18.88;92.86;101533.69;4991365;28;20034;-70
2022/06/26 08:20:23;;;;;;;5.50;2.88;;;;;;;18.90;91.03;101529.09;5007527;28;20462;-70
2022/06/26 08:22:48;;;;;;;5.82;2.90;;;;;;;19.08;88.97;101535.00;4990640;28;20433;-66
2022/06/26 08:25:14;;;;;;;4.93;2.80;;;;;;;19.20;90.35;101525.25;4992681;28;20109;-68
2022/06/26 08:27:39;;;;;;;6.55;2.75;;;;;;;19.49;86.05;101532.06;4992473;28;20030;-69
2022/06/26 08:30:06;;;;;;;8.75;3.08;;;;;;;19.63;83.76;101538.31;4981428;28;20117;-69
2022/06/26 08:32:32;;;;;;;4.32;2.80;;;;;;;19.84;83.90;101530.53;4989093;28;20049;-69
2022/06/26 08:34:57;;;;;;;5.80;2.80;;;;;;;19.88;82.09;101539.22;5007351;28;20386;-69
2022/06/26 08:37:22;;;;;;;9.13;3.45;;;;;;;20.09;84.43;101529.56;4990767;28;20042;-69
2022/06/26 08:39:48;;;;;;;6.05;2.65;;;;;;;20.75;79.97;101534.50;4990912;28;20026;-69
2022/06/26 08:42:18;;;;;;;8.18;2.50;;;;;;;21.07;76.01;101539.22;4992368;28;20030;-69
2022/06/26 08:44:45;;;;;;;5.55;2.80;;;;;;;20.97;76.71;101534.69;5007395;28;20117;-69
2022/06/26 08:47:12;;;;;;;4.47;2.65;;;;;;;21.79;75.84;101541.69;5001581;28;20026;-69
2022/06/26 08:49:39;;;;;;;6.60;2.92;;;;;;;23.02;67.69;101541.34;5008587;28;20397;-69
2022/06/26 08:52:06;;;;;;;3.88;2.50;;;;;;;23.21;67.97;101537.91;4989571;28;20512;-68
2022/06/26 08:54:32;;;;;;;4.43;2.40;;;;;;;23.32;62.94;101542.38;4982375;28;20038;-68
2022/06/26 08:56:58;;;;;;;7.63;2.80;;;;;;;23.00;65.53;101546.84;5004935;28;20085;-68
2022/06/26 08:59:23;;;;;;;3.85;2.15;;;;;;;22.94;64.07;101552.78;4991548;28;20050;-69
2022/06/26 09:01:49;;;;;;;3.42;2.38;;;;;;;22.98;63.79;101551.56;4988103;28;20042;-66
2022/06/26 09:04:16;;;;;;;5.30;2.40;;;;;;;23.77;60.58;101541.94;4990871;28;20038;-68
2022/06/26 09:06:44;;;;;;;6.93;2.50;;;;;;;24.77;60.89;101542.81;4990917;28;20037;-68
2022/06/26 09:09:14;;;;;;;4.75;2.33;;;;;;;25.44;55.03;101533.78;4991531;28;20026;-68
2022/06/26 09:11:40;;;;;;;8.43;2.65;;;;;;;24.73;53.75;101545.94;4991713;28;20031;-69
2022/06/26 09:14:05;;;;;;;5.85;2.33;;;;;;;24.08;59.93;101544.63;4991094;28;20038;-70
2022/06/26 09:16:31;;;;;;;4.95;2.13;;;;;;;24.26;59.01;101539.38;4990183;28;20030;-69
2022/06/26 09:19:07;;;;;;;7.32;2.28;;;;;;;23.91;57.42;101554.25;4991954;28;20023;-66
2022/06/26 09:21:32;;;;;;;5.43;2.40;;;;;;;23.84;57.34;101555.81;4987638;28;20058;-68
2022/06/26 09:23:58;;;;;;;5.10;2.10;;;;;;;23.70;55.68;101559.75;5001101;28;20062;-69
2022/06/26 09:26:23;;;;;;;4.80;2.22;;;;;;;23.73;54.94;101557.63;4989342;28;20028;-69
2022/06/26 09:28:48;;;;;;;6.35;2.30;;;;;;;23.95;58.81;101552.13;4989834;28;20556;-69
2022/06/26 09:31:20;;;;;;;4.20;2.00;;;;;;;24.19;50.47;101559.88;4990687;28;20198;-68
2022/06/26 09:33:45;;;;;;;;;;;;;;;24.23;49.67;101561.28;4991205;28;20045;-69
2022/06/26 09:36:15;;;;;;;5.25;2.20;;;;;;;23.87;48.13;101566.31;4997044;28;19921;-69
2022/06/26 09:38:51;;;;;;;3.60;1.80;;;;;;;23.55;53.01;101559.25;4994212;28;20081;-69
2022/06/26 09:41:29;;;;;;;4.55;1.70;;;;;;;23.46;50.18;101570.88;4986443;28;20320;-69
2022/06/26 09:43:55;;;;;;;6.57;1.90;;;;;;;23.46;49.27;101563.63;4991376;28;20037;-69
2022/06/26 09:46:27;;;;;;;6.40;1.85;;;;;;;24.02;49.86;101570.38;4994334;28;20050;-69
2022/06/26 09:48:55;;;;;;;6.50;2.15;;;;;;;24.65;47.41;101571.03;5001101;28;20022;-69
2022/06/26 09:51:23;;;;;;;3.13;1.75;;;;;;;24.99;49.82;101565.16;4991059;28;20034;-69
2022/06/26 09:53:49;;;;;;;6.55;1.77;;;;;;;24.66;45.21;101578.16;4990200;28;20035;-69
2022/06/26 09:56:14;;;;;;;4.85;1.80;;;;;;;24.07;47.93;101579.91;4990776;28;20434;-69
2022/06/26 09:58:41;;;;;;;4.35;1.80;;;;;;;24.43;46.86;101569.44;5008006;28;20939;-69
2022/06/26 10:06:34;;;;;;;5.90;2.40;;;;;;;23.69;49.93;101571.53;4995386;28;20049;-69
2022/06/26 10:09:03;;;;;;;5.40;2.25;;;;;;;23.07;52.56;101568.81;4994221;28;20393;-68
2022/06/26 10:11:30;;;;;;;6.10;2.10;;;;;;;22.80;54.18;101580.13;5016198;28;20430;-69
2022/06/26 10:14:13;;;;;;;5.28;2.22;;;;;;;22.62;53.10;101574.47;4999139;28;20022;-69
2022/06/26 10:16:50;;;;;;;4.57;2.00;;;;;;;22.75;54.16;101573.28;4994440;28;20065;-68
2022/06/26 10:19:33;;;;;;;4.53;2.20;;;;;;;23.28;52.77;101568.81;4982359;28;20059;-68
2022/06/26 10:21:59;;;;;;;5.03;2.17;;;;;;;23.70;50.52;101578.66;4991020;28;20057;-68
2022/06/26 10:24:25;;;;;;;6.40;2.35;;;;;;;23.49;51.82;101582.28;4994069;28;20474;-68
2022/06/26 10:26:57;;;;;;;5.85;2.13;;;;;;;23.28;51.87;101573.38;4993405;28;20146;-68
2022/06/26 10:29:41;;;;;;;3.33;2.08;;;;;;;23.23;51.65;101568.34;4995027;28;20026;-68
2022/06/26 10:32:07;;;;;;;2.97;2.00;;;;;;;22.90;52.87;101583.75;4993985;28;20066;-68
2022/06/26 10:34:33;;;;;;;5.38;2.33;;;;;;;22.72;56.97;101578.97;4994912;28;20866;-67
2022/06/26 10:37:03;;;;;;;8.27;2.22;;;;;;;22.57;55.29;101585.63;4992878;28;20125;-69
2022/06/26 10:39:41;;;;;;;4.72;2.35;;;;;;;22.57;54.64;101582.94;4992269;28;20022;-68
2022/06/26 10:45:09;;;;;;;4.32;2.30;;;;;;;22.22;55.79;101582.16;4986676;28;20138;-68
2022/06/26 10:47:39;;;;;;;4.70;2.30;;;;;;;22.05;55.80;101585.41;4990439;28;20434;-69
2022/06/26 10:50:05;;;;;;;2.80;1.85;;;;;;;21.76;57.36;101585.94;4989105;28;20077;-68
2022/06/26 10:52:31;;;;;;;5.22;2.20;;;;;;;21.83;57.59;101581.78;4993584;28;20034;-68
2022/06/26 10:55:02;;;;;;;5.32;1.90;;;;;;;22.03;57.67;101590.06;4993834;28;20490;-68
2022/06/26 10:57:35;;;;;;;;;;;;;;;22.13;57.07;101582.94;5007138;28;21159;-68
2022/06/26 11:00:03;;;;;;;4.15;2.13;;;;;;;22.52;55.76;101582.47;5007015;28;19929;-68
2022/06/26 11:02:36;;;;;;;5.18;2.00;;;;;;;22.67;54.90;101578.47;5002572;28;20027;-69
2022/06/26 11:05:03;;;;;;;4.05;2.22;;;;;;;22.58;52.83;101587.34;5008724;28;20026;-68
2022/06/26 11:07:38;;;;;;;5.13;2.25;;;;;;;22.36;53.44;101591.84;4995147;28;20064;-70
2022/06/26 11:10:09;;;;;;;5.30;2.35;;;;;;;22.14;54.65;101586.50;4992304;28;20070;-68
2022/06/26 11:12:43;;;;;;;7.00;2.42;;;;;;;22.06;55.88;101584.44;4990592;28;20030;-68
2022/06/26 11:15:26;;;;;;;5.45;2.75;;;;;;;21.91;56.89;101584.69;4992239;28;20030;-68
2022/06/26 11:17:57;;;;;;;6.88;2.50;;;;;;;21.86;57.55;101586.06;4993608;28;20117;-68
2022/06/26 11:23:25;;;;;;;4.40;2.33;;;;;;;21.75;56.97;101582.38;4991645;28;20041;-68
2022/06/26 11:25:55;;;;;;;5.13;2.30;;;;;;;22.23;55.91;101577.63;4985103;28;20068;-69
2022/06/26 11:28:25;;;;;;;2.95;2.33;;;;;;;22.66;55.00;101578.59;4985427;28;20670;-69